Belvedere, California
Current Conditions -  °F | °C
As of 2:53 PM on Saturday 22 Nov 2014 (Local Time) from KOAK Reporting Station
Broken Clouds Broken Clouds  
Wind Chill: 64°   Ceiling: 18000
Heat Index: 64°   Visibility: 10mi
Dew Point: 57°   Wind: 9mph
Humidity: 78%   Direction: 270°W
Pressure: 30.12"   Gusts: NA
Location:  37.8931°N, 122.472°W
Report Text: KOAK 222253Z 27008KT 10SM FEW014 SCT030 BKN180 18/14 A3012 RMK AO2 SLP201 T01780139
Loading
Personal Weather Stations






























Interactive Weather Map New forecast layout! Learn more

10-Day Weather Forecast

Advertisements
Track Severe Weather on mobile